createdAt,value
2019-01-23T00:02:12.418Z,73.10
2019-01-23T00:04:52.806Z,73.30
2019-01-23T00:07:33.248Z,73.70
2019-01-23T00:10:12.966Z,72.70
2019-01-23T00:12:53.488Z,73.10
2019-01-23T00:15:33.079Z,73.00
2019-01-23T00:18:13.070Z,73.30
2019-01-23T00:20:53.307Z,72.80
2019-01-23T00:23:33.413Z,72.50
2019-01-23T00:26:13.516Z,72.60
2019-01-23T00:28:53.680Z,72.20
2019-01-23T00:31:33.498Z,71.90
2019-01-23T00:34:13.574Z,71.60
2019-01-23T00:36:53.736Z,72.60
2019-01-23T00:39:33.887Z,71.50
2019-01-23T00:42:13.773Z,71.60
2019-01-23T00:44:53.675Z,71.80
2019-01-23T00:47:33.729Z,71.70
2019-01-23T00:50:13.992Z,71.50
2019-01-23T00:52:54.020Z,72.30
2019-01-23T00:55:34.438Z,72.40
2019-01-23T00:58:14.455Z,72.30
2019-01-23T01:00:54.542Z,72.60
2019-01-23T01:03:34.868Z,73.10
2019-01-23T01:06:14.715Z,73.20
2019-01-23T01:08:54.812Z,73.20
2019-01-23T01:11:35.089Z,73.30
2019-01-23T01:14:14.938Z,73.50
2019-01-23T01:16:55.014Z,73.60
2019-01-23T01:19:35.420Z,73.60
2019-01-23T01:22:15.272Z,73.60
2019-01-23T01:24:56.079Z,73.80
2019-01-23T01:27:35.974Z,73.90
2019-01-23T01:30:15.997Z,73.70
2019-01-23T01:32:56.229Z,74.30
2019-01-23T01:35:36.213Z,74.20
2019-01-23T01:38:16.134Z,74.60
2019-01-23T01:40:56.506Z,74.70
2019-01-23T01:43:36.498Z,75.20
2019-01-23T01:46:16.482Z,75.10
2019-01-23T01:48:56.569Z,75.10
2019-01-23T01:51:36.477Z,75.00
2019-01-23T01:54:16.704Z,75.10
2019-01-23T01:56:56.891Z,75.30
2019-01-23T01:59:36.640Z,75.30
2019-01-23T02:02:16.652Z,75.30
2019-01-23T02:04:56.755Z,75.40
2019-01-23T02:07:36.696Z,75.80
2019-01-23T02:10:16.922Z,75.80
2019-01-23T02:12:56.958Z,76.10
2019-01-23T02:15:36.792Z,76.00
2019-01-23T02:18:16.866Z,76.00
2019-01-23T02:20:57.039Z,76.00
2019-01-23T02:23:37.180Z,76.00
2019-01-23T04:12:09.525Z,76.40
2019-01-23T04:14:49.358Z,76.20
2019-01-23T04:17:29.412Z,76.00
2019-01-23T04:20:09.517Z,76.40
2019-01-23T04:22:49.874Z,76.50
2019-01-23T04:25:30.113Z,76.60
2019-01-23T04:28:09.971Z,76.90
2019-01-23T04:30:50.141Z,77.10
2019-01-23T04:33:30.050Z,77.30
2019-01-23T04:36:10.122Z,77.10
2019-01-23T04:38:50.052Z,77.40
2019-01-23T04:41:30.263Z,77.10
2019-01-23T04:44:10.488Z,77.30
2019-01-23T04:46:50.704Z,76.70
2019-01-23T04:49:30.487Z,76.70
2019-01-23T04:55:47.647Z,77.80
2019-01-23T04:58:27.532Z,77.00
2019-01-23T05:01:07.605Z,77.10
2019-01-23T05:03:47.507Z,77.20
2019-01-23T05:06:27.436Z,77.60
2019-01-23T05:09:07.574Z,77.60
2019-01-23T05:11:47.574Z,77.80
2019-01-23T05:14:27.922Z,77.80
2019-01-23T05:17:07.995Z,77.60
2019-01-23T05:19:48.011Z,77.90
2019-01-23T05:22:28.077Z,77.50
2019-01-23T05:25:07.796Z,77.50
2019-01-23T05:27:47.980Z,77.90
2019-01-23T05:30:28.028Z,77.90
2019-01-23T05:33:08.349Z,77.70
2019-01-23T05:35:48.265Z,77.60
2019-01-23T05:38:28.558Z,77.30
2019-01-23T05:41:08.661Z,77.50
2019-01-23T05:43:48.766Z,77.50
2019-01-23T05:46:30.689Z,78.00
2019-01-23T05:49:10.809Z,78.20
2019-01-23T05:51:50.515Z,78.40
2019-01-23T05:54:30.846Z,78.80
2019-01-23T05:57:10.656Z,78.70
2019-01-23T05:59:50.830Z,78.80
2019-01-23T06:02:30.689Z,79.00
2019-01-23T06:05:10.766Z,79.00
2019-01-23T06:07:50.985Z,79.30
2019-01-23T06:10:31.234Z,79.20
2019-01-23T06:13:11.244Z,79.20
2019-01-23T06:15:51.028Z,79.30
2019-01-23T06:18:30.926Z,79.10
2019-01-23T06:21:11.297Z,78.80
2019-01-23T06:23:54.212Z,78.50
2019-01-23T06:26:34.011Z,78.70
2019-01-23T06:29:14.270Z,78.40
2019-01-23T06:31:54.295Z,78.50
2019-01-23T06:34:35.319Z,78.30
2019-01-23T06:37:15.688Z,78.50
2019-01-23T06:39:55.812Z,78.70
2019-01-23T06:42:36.188Z,78.60
2019-01-23T06:45:16.070Z,78.50
2019-01-23T06:47:55.802Z,78.30
2019-01-23T06:50:35.963Z,78.10
2019-01-23T06:53:16.020Z,78.30
2019-01-23T06:55:56.131Z,78.50
2019-01-23T06:58:36.522Z,78.40
2019-01-23T07:01:16.447Z,77.90
2019-01-23T07:03:56.149Z,78.20
2019-01-23T07:06:36.316Z,78.00
2019-01-23T07:09:16.432Z,78.50
2019-01-23T07:11:56.721Z,79.10
2019-01-23T07:14:37.007Z,78.80
2019-01-23T07:17:16.884Z,78.60
2019-01-23T07:19:56.770Z,78.50
2019-01-23T07:22:36.972Z,78.40
2019-01-23T07:25:17.642Z,78.40
2019-01-23T07:27:57.217Z,78.40
2019-01-23T07:30:37.817Z,78.30
2019-01-23T07:33:17.422Z,78.50
2019-01-23T07:35:57.244Z,78.30
2019-01-23T07:38:37.302Z,78.60
2019-01-23T07:41:17.464Z,78.70
2019-01-23T07:43:57.599Z,79.00
2019-01-23T07:46:38.236Z,79.10
2019-01-23T07:49:17.982Z,78.80
2019-01-23T07:51:57.992Z,78.70
2019-01-23T07:54:38.292Z,78.20
2019-01-23T07:57:18.335Z,78.50
2019-01-23T07:59:58.187Z,78.70
2019-01-23T08:02:38.243Z,79.00
2019-01-23T08:05:19.538Z,79.20
2019-01-23T08:07:59.778Z,79.60
2019-01-23T08:10:40.159Z,79.80
2019-01-23T08:13:20.164Z,80.00
2019-01-23T08:16:00.104Z,79.90
2019-01-23T08:18:40.304Z,79.30
2019-01-23T08:21:20.538Z,79.40
2019-01-23T08:24:00.543Z,79.70
2019-01-23T08:26:41.546Z,80.10
2019-01-23T08:29:21.816Z,79.50
2019-01-23T08:32:02.010Z,79.40
2019-01-23T08:34:42.355Z,79.50
2019-01-23T08:37:22.330Z,79.60
2019-01-23T08:40:02.627Z,79.30
2019-01-23T08:42:44.176Z,79.80
2019-01-23T08:45:24.023Z,80.30
2019-01-23T08:48:03.936Z,80.70
2019-01-23T08:50:44.324Z,80.70
2019-01-23T08:53:24.864Z,80.90
2019-01-23T08:56:04.909Z,80.60
2019-01-23T08:58:45.152Z,81.20
2019-01-23T09:01:25.356Z,81.50
2019-01-23T09:04:05.386Z,82.40
2019-01-23T09:06:45.649Z,80.90
2019-01-23T09:09:25.693Z,80.60
2019-01-23T09:12:05.604Z,80.80
2019-01-23T09:14:47.067Z,81.00
2019-01-23T09:17:26.778Z,81.10
2019-01-23T09:20:07.076Z,81.90
2019-01-23T09:22:47.128Z,82.00
2019-01-23T09:25:27.241Z,82.20
2019-01-23T09:28:07.645Z,82.00
2019-01-23T09:30:52.604Z,82.10
2019-01-23T09:33:29.975Z,81.60
2019-01-23T09:36:11.206Z,81.80
2019-01-23T09:38:51.995Z,82.30
2019-01-23T09:41:32.242Z,82.10
2019-01-23T09:44:12.108Z,82.00
2019-01-23T09:46:52.423Z,82.00
2019-01-23T09:49:33.039Z,82.10
2019-01-23T09:52:12.856Z,82.30
2019-01-23T09:54:53.423Z,82.40
2019-01-23T09:57:33.198Z,82.60
2019-01-23T10:00:13.540Z,82.50
2019-01-23T10:02:53.644Z,83.00
2019-01-23T10:05:33.620Z,83.10
2019-01-23T10:08:13.411Z,83.10
2019-01-23T10:10:53.440Z,83.40
2019-01-23T10:13:33.474Z,83.10
2019-01-23T10:16:13.804Z,83.00
2019-01-23T10:18:56.192Z,83.20
2019-01-23T10:21:35.887Z,83.40
2019-01-23T10:24:15.580Z,83.50
2019-01-23T10:26:55.862Z,83.50
2019-01-23T10:29:35.766Z,83.40
2019-01-23T10:32:16.148Z,83.30
2019-01-23T10:34:56.128Z,83.60
2019-01-23T10:37:35.935Z,83.70
2019-01-23T10:40:16.129Z,83.90
2019-01-23T10:42:56.266Z,83.90
2019-01-23T10:45:36.454Z,83.80
2019-01-23T10:48:16.545Z,83.80
2019-01-23T10:50:56.460Z,83.90
2019-01-23T10:53:36.652Z,83.90
2019-01-23T10:56:16.672Z,84.00
2019-01-23T10:58:56.804Z,84.20
2019-01-23T11:01:36.737Z,83.90
2019-01-23T11:04:16.627Z,84.00
2019-01-23T11:06:57.135Z,83.90
2019-01-23T11:09:36.707Z,83.80
2019-01-23T11:12:16.909Z,83.80
2019-01-23T11:14:56.847Z,83.90
2019-01-23T11:17:37.175Z,83.80
2019-01-23T11:20:17.309Z,84.00
2019-01-23T11:22:57.287Z,83.80
2019-01-23T11:25:37.708Z,83.60
2019-01-23T11:28:17.354Z,83.60
2019-01-23T11:30:57.407Z,83.70
2019-01-23T11:33:37.656Z,83.90
2019-01-23T11:36:17.727Z,83.90
2019-01-23T11:38:57.740Z,83.90
2019-01-23T11:41:38.166Z,83.90
2019-01-23T11:44:18.252Z,83.50
2019-01-23T11:46:59.427Z,83.70
2019-01-23T11:49:39.680Z,84.20
2019-01-23T11:52:19.445Z,83.80
2019-01-23T11:54:59.524Z,84.20
2019-01-23T11:57:40.007Z,83.80
2019-01-23T12:00:20.384Z,83.80
2019-01-23T12:03:00.447Z,83.90
2019-01-23T12:05:40.304Z,84.10
2019-01-23T12:08:20.524Z,84.30
2019-01-23T12:11:00.049Z,84.10
2019-01-23T12:13:40.443Z,84.20
2019-01-23T12:16:20.309Z,84.20
2019-01-23T12:19:00.377Z,84.20
2019-01-23T12:21:43.404Z,84.30
2019-01-23T12:24:24.808Z,84.10
2019-01-23T12:27:04.829Z,84.30
2019-01-23T12:29:44.906Z,84.60
2019-01-23T12:32:24.995Z,84.30
2019-01-23T12:35:05.014Z,84.20
2019-01-23T12:37:45.093Z,84.40
2019-01-23T12:40:25.170Z,84.40
2019-01-23T12:43:05.499Z,84.20
2019-01-23T12:45:45.234Z,84.20
2019-01-23T12:48:25.602Z,83.90
2019-01-23T12:51:05.515Z,83.90
2019-01-23T12:53:45.437Z,83.80
2019-01-23T12:56:25.592Z,83.90
2019-01-23T12:59:05.604Z,83.60
2019-01-23T13:01:47.108Z,83.50
2019-01-23T13:04:27.108Z,83.50
2019-01-23T13:07:06.945Z,83.70
2019-01-23T13:09:47.154Z,83.50
2019-01-23T13:12:27.526Z,83.90
2019-01-23T13:15:07.682Z,83.10
2019-01-23T13:17:47.467Z,82.60
2019-01-23T13:20:27.370Z,82.40
2019-01-23T13:23:07.613Z,82.40
2019-01-23T13:25:47.508Z,82.30
2019-01-23T13:28:27.696Z,85.80
2019-01-23T13:31:07.554Z,82.70
2019-01-23T13:33:47.692Z,82.40
2019-01-23T13:36:27.729Z,82.50
2019-01-23T13:39:07.980Z,82.20
2019-01-23T13:41:48.307Z,82.10
2019-01-23T13:44:29.106Z,82.20
2019-01-23T13:47:08.708Z,81.70
2019-01-23T13:49:48.854Z,81.60
2019-01-23T13:52:28.823Z,82.00
2019-01-23T13:55:08.991Z,81.60
2019-01-23T13:57:49.462Z,81.40
2019-01-23T14:00:29.192Z,81.00
2019-01-23T14:03:09.124Z,81.60
2019-01-23T14:05:49.291Z,81.80
2019-01-23T14:08:29.365Z,81.60
2019-01-23T14:11:09.316Z,82.90
2019-01-23T14:13:49.656Z,82.40
2019-01-23T14:16:29.521Z,81.70
2019-01-23T14:19:09.860Z,81.00
2019-01-23T14:21:49.658Z,80.50
2019-01-23T14:24:29.950Z,80.50
2019-01-23T14:27:09.680Z,80.30
2019-01-23T14:29:49.909Z,80.20
2019-01-23T14:32:29.970Z,79.90
2019-01-23T14:35:09.979Z,79.60
2019-01-23T14:37:50.178Z,79.60
2019-01-23T14:40:30.018Z,80.00
2019-01-23T14:43:09.919Z,79.30
2019-01-23T14:45:51.008Z,78.60
2019-01-23T14:48:31.469Z,78.90
2019-01-23T14:51:11.256Z,78.60
2019-01-23T14:53:51.512Z,78.90
2019-01-23T14:56:31.672Z,78.70
2019-01-23T14:59:11.728Z,78.40
2019-01-23T15:01:51.610Z,79.00
2019-01-23T15:04:31.446Z,78.90
2019-01-23T15:07:11.564Z,78.80
2019-01-23T15:09:51.817Z,78.60
2019-01-23T15:12:31.354Z,78.20
2019-01-23T15:15:11.689Z,77.80
2019-01-23T15:17:51.479Z,78.60
2019-01-23T15:20:31.622Z,78.70
2019-01-23T15:23:11.882Z,78.40
2019-01-23T15:25:51.545Z,78.30
2019-01-23T15:28:31.802Z,78.20
2019-01-23T15:31:11.838Z,78.20
2019-01-23T15:33:51.752Z,78.10
2019-01-23T15:36:31.959Z,77.80
2019-01-23T15:39:11.962Z,77.40
2019-01-23T15:41:51.772Z,77.90
2019-01-23T15:44:32.064Z,77.80
2019-01-23T15:47:12.044Z,77.70
2019-01-23T15:49:52.038Z,77.60
2019-01-23T15:52:32.346Z,78.00
2019-01-23T15:55:12.180Z,78.00
2019-01-23T15:57:52.471Z,77.80
2019-01-23T16:00:32.624Z,77.00
2019-01-23T16:03:12.572Z,76.70
2019-01-23T16:05:52.548Z,76.80
2019-01-23T16:08:33.096Z,76.60
2019-01-23T16:11:13.170Z,76.00
2019-01-23T16:13:53.217Z,75.70
2019-01-23T16:16:33.777Z,74.70
2019-01-23T16:19:13.663Z,74.30
2019-01-23T16:21:53.227Z,74.70
2019-01-23T16:24:33.340Z,74.30
2019-01-23T16:27:13.241Z,74.60
2019-01-23T16:29:54.336Z,74.10
2019-01-23T16:32:34.624Z,74.00
2019-01-23T16:35:14.928Z,73.70
2019-01-23T16:37:54.671Z,74.00
2019-01-23T16:40:35.098Z,73.40
2019-01-23T16:43:15.640Z,73.40
2019-01-23T16:45:55.611Z,76.20
2019-01-23T16:48:36.044Z,73.60
2019-01-23T16:51:16.263Z,73.40
2019-01-23T16:53:56.144Z,72.60
2019-01-23T16:56:36.092Z,72.50
2019-01-23T16:59:16.012Z,72.30
2019-01-23T17:01:56.371Z,72.40
2019-01-23T17:04:37.590Z,72.60
2019-01-23T17:07:17.972Z,72.00
2019-01-23T17:09:57.782Z,71.90
2019-01-23T17:12:37.726Z,72.30
2019-01-23T17:15:17.983Z,72.70
2019-01-23T17:17:58.928Z,72.70
2019-01-23T17:20:39.195Z,72.90
2019-01-23T17:23:19.197Z,72.80
2019-01-23T17:25:58.964Z,71.70
2019-01-23T17:28:38.957Z,72.30
2019-01-23T17:31:19.229Z,72.40
2019-01-23T17:33:59.458Z,72.60
2019-01-23T17:36:39.439Z,72.10
2019-01-23T17:39:19.377Z,72.40
2019-01-23T17:41:59.414Z,72.30
2019-01-23T17:44:39.471Z,72.50
2019-01-23T17:47:20.005Z,72.90
2019-01-23T17:50:00.548Z,72.60
2019-01-23T17:52:40.751Z,72.30
2019-01-23T17:55:20.435Z,72.40
2019-01-23T17:58:00.541Z,72.10
2019-01-23T18:00:46.219Z,72.20
2019-01-23T18:03:26.668Z,72.30
2019-01-23T18:06:07.034Z,72.30
2019-01-23T18:08:46.877Z,72.40
2019-01-23T18:11:26.572Z,72.50
2019-01-23T18:14:07.074Z,72.70
2019-01-23T18:16:46.803Z,73.10
2019-01-23T18:19:26.932Z,73.40
2019-01-23T18:22:07.318Z,73.70
2019-01-23T18:24:47.459Z,73.90
2019-01-23T18:27:27.381Z,73.30
2019-01-23T18:30:07.586Z,73.30
2019-01-23T18:32:47.987Z,73.40
2019-01-23T18:35:27.961Z,73.60
2019-01-23T18:38:08.008Z,73.40
2019-01-23T18:40:48.059Z,73.60
2019-01-23T18:43:27.930Z,73.90
2019-01-23T18:46:07.899Z,74.30
2019-01-23T18:48:47.909Z,74.20
2019-01-23T18:51:29.072Z,73.70
2019-01-23T18:54:09.154Z,74.00
2019-01-23T18:56:49.312Z,74.30
2019-01-23T18:59:30.567Z,74.40
2019-01-23T19:02:10.903Z,73.30
2019-01-23T19:04:51.198Z,73.30
2019-01-23T19:07:31.281Z,72.90
2019-01-23T19:10:11.309Z,73.20
2019-01-23T19:12:51.792Z,73.20
2019-01-23T19:15:31.732Z,73.40
2019-01-23T19:18:09.851Z,73.00
2019-01-23T19:20:49.766Z,72.90
2019-01-23T19:23:29.520Z,73.40
2019-01-23T19:26:09.771Z,72.30
2019-01-23T19:28:49.757Z,72.90
2019-01-23T19:31:29.703Z,72.60
2019-01-23T19:34:09.561Z,73.00
2019-01-23T19:36:49.799Z,72.70
2019-01-23T19:39:29.868Z,71.70
2019-01-23T19:42:09.733Z,72.30
2019-01-23T19:44:50.332Z,72.00
2019-01-23T19:47:31.233Z,72.00
2019-01-23T19:50:11.337Z,71.70
2019-01-23T19:52:51.019Z,72.20
2019-01-23T19:55:31.188Z,72.30
2019-01-23T19:58:11.340Z,72.10
2019-01-23T20:00:51.696Z,71.80
2019-01-23T20:03:32.344Z,71.90
2019-01-23T20:06:12.675Z,72.00
2019-01-23T20:08:52.862Z,72.50
2019-01-23T20:11:32.890Z,72.80
2019-01-23T20:14:13.008Z,72.60
2019-01-23T20:16:52.941Z,72.60
2019-01-23T20:19:32.906Z,72.50
2019-01-23T20:22:12.896Z,72.30
2019-01-23T20:24:53.240Z,72.80
2019-01-23T20:27:33.458Z,72.60
2019-01-23T20:30:13.323Z,72.60
2019-01-23T20:32:53.472Z,72.40
2019-01-23T20:35:33.640Z,72.60
2019-01-23T20:38:13.685Z,72.70
2019-01-23T20:40:54.171Z,72.80
2019-01-23T20:43:34.661Z,73.10
2019-01-23T20:46:15.008Z,72.90
2019-01-23T20:48:54.872Z,72.90
2019-01-23T20:51:35.148Z,73.00
2019-01-23T20:54:18.223Z,72.80
2019-01-23T20:57:00.676Z,72.50
2019-01-23T20:59:41.015Z,72.70
2019-01-23T21:02:21.005Z,73.30
2019-01-23T21:05:01.110Z,72.30
2019-01-23T21:07:41.434Z,72.60
2019-01-23T21:10:21.840Z,73.00
2019-01-23T21:13:02.457Z,72.80
2019-01-23T21:15:42.783Z,72.40
2019-01-23T21:18:23.441Z,72.50
2019-01-23T21:21:03.096Z,72.50
2019-01-23T21:23:42.992Z,72.30
2019-01-23T21:26:22.788Z,72.20
2019-01-23T21:29:03.311Z,73.00
2019-01-23T21:31:43.048Z,72.60
2019-01-23T21:34:23.355Z,72.60
2019-01-23T21:37:03.461Z,71.90
2019-01-23T21:39:43.422Z,71.90
2019-01-23T21:42:23.590Z,71.90
2019-01-23T21:45:03.323Z,72.20
2019-01-23T21:47:43.419Z,72.10
2019-01-23T21:50:23.584Z,71.70
2019-01-23T21:53:03.452Z,72.00
2019-01-23T21:55:43.743Z,72.10
2019-01-23T21:58:23.797Z,72.10
2019-01-23T22:01:04.404Z,72.00
2019-01-23T22:03:49.198Z,72.20
2019-01-23T22:06:26.505Z,72.20
2019-01-23T22:09:06.614Z,72.30
2019-01-23T22:11:48.779Z,72.00
2019-01-23T22:14:29.043Z,72.20
2019-01-23T22:17:09.070Z,71.90
2019-01-23T22:19:49.200Z,72.10
2019-01-23T22:22:29.143Z,72.50
2019-01-23T22:25:09.317Z,72.60
2019-01-23T22:27:49.312Z,72.80
2019-01-23T22:30:29.575Z,72.50
2019-01-23T22:33:10.362Z,72.70
2019-01-23T22:35:50.394Z,72.80
2019-01-23T22:38:30.428Z,73.00
2019-01-23T22:41:10.428Z,72.90
2019-01-23T22:43:50.811Z,73.20
2019-01-23T22:46:30.789Z,72.90
2019-01-23T22:49:10.882Z,73.00
2019-01-23T22:51:51.157Z,73.10
2019-01-23T22:54:30.984Z,73.30
2019-01-23T22:57:10.894Z,73.40
2019-01-23T22:59:51.220Z,73.40
2019-01-23T23:02:31.340Z,73.50
2019-01-23T23:05:11.352Z,73.80
2019-01-23T23:07:51.814Z,73.70
2019-01-23T23:10:32.192Z,73.80
2019-01-23T23:13:12.387Z,73.60
2019-01-23T23:15:52.338Z,74.00
2019-01-23T23:18:32.436Z,73.50
2019-01-23T23:21:12.268Z,73.00
2019-01-23T23:23:52.327Z,73.40
2019-01-23T23:26:32.690Z,74.40
2019-01-23T23:29:12.682Z,73.00
2019-01-23T23:31:53.301Z,73.30
2019-01-23T23:34:33.858Z,73.30
2019-01-23T23:37:13.957Z,73.40
2019-01-23T23:39:55.096Z,73.30
2019-01-23T23:42:35.303Z,73.10
2019-01-23T23:45:15.374Z,73.00
2019-01-23T23:47:55.460Z,72.80
2019-01-23T23:50:35.553Z,73.20
2019-01-23T23:53:15.781Z,73.40
2019-01-23T23:55:55.847Z,73.40
2019-01-23T23:58:36.034Z,72.90
